Deep River, CT

1:59 PM EDT on October 20, 2014 (GMT -0400)
Chester | Change Station
CLOSE
Current Station
Airport
Location: Chester,
Elevation: 413 ft
Nearby Weather Stations

Elev 413 ft 41.38 °N, 72.51 °W | Updated 44 minutes ago

Clear
Clear
52 °F
Feels Like 52 °F
N
8
Wind Variable Wind from SW

Today
High -- | Low -- °F
--% Chance of Precip.
Yesterday
High -- | Low -- °F
Precip. -- in
7:07 AM 6:01 PM
Waning Crescent, 10% visible
Pressure 30.05 in
Visibility 10.0 miles
Clouds Few 11000 ft
Dew Point 36 °F
Humidity 54%
Rainfall 0.00 in
Snow Depth Not available.
UV 4 out of 12
Pollen .90 out of 12
Air Quality Not available.
Flu Activity Sporadic
METAR KSNC 201715Z AUTO 22007KT 10SM FEW110 11/02 A3005 RMK AO2

More Conditions Fewer Conditions

Pressure 30.05 in
Visibility 10.0 miles
Clouds Few 11000 ft
Dew Point 36 °F
Humidity 54%
Rainfall 0.00 in
Snow Depth Not available.
UV 4 out of 12
Pollen .90 out of 12
Air Quality Not available.
Flu Activity Sporadic
METAR KSNC 201715Z AUTO 22007KT 10SM FEW110 11/02 A3005 RMK AO2

More Conditions Fewer Conditions

10-Day Weather Forecast

Almanac

Astronomy

Oct. 20, 2014 Rise Set
Actual Time 7:07 AM EDT 6:01 PM EDT
Civil Twilight 6:39 AM EDT 6:29 PM EDT
Nautical Twilight 6:07 AM EDT 7:01 PM EDT
Astronomical Twilight 5:35 AM EDT 7:33 PM EDT
Moon 3:51 AM EDT 4:24 PM EDT
Length of Visible Light 11h 50m
Length of Day
10h 54m
Waning Crescent, 10% of the Moon is Illuminated
Today
Waning Crescent
Oct 23
New
Oct 30
First Quarter
Nov 6
Full
Nov 14
Last Quarter

Today's Extremes

State Highs State Lows

Community

WunderPhotos

Upload Photos

1,763,446 photos uploaded!

WunderBlogs® & News

Nearby

Air Quality

  Air Quality AQ Index Pollutant
Monday Good
PM2.5

Snow Depth

Station Depth Elevation
No new snow has been reported.

Earthquake Activity

City Distance Mag. Time & Date
No recent earthquake activity has been reported nearby.
Minimum magnitude displayed is 2.5.

Coastal Water Temperatures

Place Temperature
New London, CT 64.0 °F
Newport, RI 61.0 °F
Quonset Point, RI 62.1 °F
Conimicut Light, RI 61.0 °F
Providence, RI 61.0 °F

Nearby Weather Stations